Flight Briefing for CPX790

Departure Arrival
Kingsford Smith International Airport (YSSY)
Click to view FAA NOTAMS
Changi International Airport (WSSS)
Click to view FAA NOTAMS
Departure Time Arrival Time
N/A N/A
Aircraft Distance
B747-400BCF 3402nm
Departure METAR Arrival METAR
YSSY 201000Z 17007KT 9999 FEW018 SCT120 23/20 Q1015 WSSS 201000Z 04011KT 9999 FEW022 BKN300 31/22 Q1007 NOSIG
Suggested Route
KADOM A576 PKS/N0482F360 A576 AS A587 ONOXA/N0482F380 G326 BLI M635 SURGA


View recent IFR Routes data
Notes



Charts and Procedures

Charts for YSSY
No chart available
Charts for WSSS
No chart available

Windy.com Weather Map